Mount Vernon, OH (43050)

2:29 PM EDT on March 28, 2015 (GMT -0400)
south mount vernon | | Change Station
CLOSE
Current Station
Personal Weather Station
Location: Mount Vernon, OH
Elevation: 994 ft
Nearby Weather Stations

Elev 994 ft 40.38 °N, 82.49 °W | Updated 58 seconds ago

Mostly Cloudy
Mostly Cloudy
29.3 °F
Feels Like 19 °F
N
13.0
Wind Variable Wind from NNE

Today
High -- | Low -- °F
--% Chance of Precip.
Yesterday
High -- | Low -- °F
Precip. -- in
7:20 AM 7:50 PM
Waxing Gibbous, 64% visible
Pressure 30.23 in
Visibility 10.0 miles
Clouds Scattered Clouds 3500 ft
Mostly Cloudy 4000 ft
Windchill 19 °F
Dew Point 15 °F
Humidity 54%
Rainfall 0.00 in
Snow Depth Not available.
UV 4 out of 12
Pollen 2.80 out of 12
Air Quality Not available.
Flu Activity Not available.
METAR K4I3 281816Z AUTO 35008G15KT 10SM SCT035 BKN040 M02/M09 A3023 RMK AO2

More Conditions Fewer Conditions

Pressure 30.23 in
Visibility 10.0 miles
Clouds Scattered Clouds 3500 ft
Mostly Cloudy 4000 ft
Windchill 19 °F
Dew Point 15 °F
Humidity 54%
Rainfall 0.00 in
Snow Depth Not available.
UV 4 out of 12
Pollen 2.80 out of 12
Air Quality Not available.
Flu Activity Not available.
METAR K4I3 281816Z AUTO 35008G15KT 10SM SCT035 BKN040 M02/M09 A3023 RMK AO2

More Conditions Fewer Conditions

10-Day Weather Forecast

Almanac

Astronomy

Mar. 28, 2015 Rise Set
Actual Time
Civil Twilight
Nautical Twilight
Astronomical Twilight
Moon
Length of Visible Light
Length of Day
Tomorrow will be .
, % of the Moon is Illuminated

Today's Extremes

State Highs State Lows

Community

WunderPhotos

Upload Photos

1,809,055 photos uploaded!

WunderBlogs® & News

Nearby

Air Quality

  Air Quality AQ Index Pollutant
Not available.

Snow Depth

Station Depth Elevation

Earthquake Activity

City Distance Mag. Time & Date
Minimum magnitude displayed is 2.5.

Coastal Water Temperatures

Place Temperature

Stations

Nearby Weather Stations

Station Location Temp. Windchill Dew Point Humidity Wind Precip. Elev Updated Type